Time;durP1;ratioP1;P1;durP2;ratioP2;P2;SDS_P1;SDS_P2;PMS_P1;PMS_P2;Temp;Humidity;BMP_temperature;BMP_pressure;BME280_temperature;BME280_humidity;BME280_pressure;Samples;Min_cycle;Max_cycle;Signal;HPM_P1;HPM_P2
2021/05/31 00:04:06;;;;;;;5.20;4.70;;;16.70;69.20;;;;;;10535181;28;20208;-23
2021/05/31 00:09:28;;;;;;;10.03;5.17;;;16.70;69.10;;;;;;10535381;28;20294;-23
2021/05/31 00:14:50;;;;;;;9.03;5.70;;;16.70;69.00;;;;;;10488558;28;20707;-23
2021/05/31 00:20:13;;;;;;;5.93;4.73;;;16.70;68.70;;;;;;10492762;28;20657;-23
2021/05/31 00:25:34;;;;;;;8.37;5.53;;;16.70;68.40;;;;;;10466104;28;20191;-23
2021/05/31 00:30:56;;;;;;;7.17;5.30;;;16.70;68.20;;;;;;10452578;28;20751;-23
2021/05/31 00:36:19;;;;;;;7.67;5.40;;;16.70;68.40;;;;;;10486347;28;20209;-23
2021/05/31 00:41:44;;;;;;;6.30;5.27;;;16.60;68.10;;;;;;10508769;28;20629;-24
2021/05/31 00:47:06;;;;;;;8.67;5.50;;;16.60;68.00;;;;;;10493926;28;20218;-24
2021/05/31 00:52:28;;;;;;;7.90;5.27;;;16.60;67.70;;;;;;10492337;28;20572;-24
2021/05/31 00:57:50;;;;;;;8.20;5.27;;;16.60;67.50;;;;;;10449263;28;20199;-23
2021/05/31 01:03:12;;;;;;;6.90;5.20;;;16.60;67.60;;;;;;10451217;28;20245;-23
2021/05/31 01:08:43;;;;;;;7.03;4.80;;;16.60;67.60;;;;;;10451636;28;20215;-23
2021/05/31 01:14:09;;;;;;;5.93;4.87;;;16.60;67.30;;;;;;10458777;28;20219;-23
2021/05/31 01:20:01;;;;;;;6.03;5.20;;;16.60;67.00;;;;;;10458022;28;20202;-24
2021/05/31 01:25:32;;;;;;;7.47;4.67;;;16.60;66.70;;;;;;10478567;28;20199;-23
2021/05/31 01:30:58;;;;;;;7.60;4.87;;;16.60;66.60;;;;;;10540983;28;20298;-23
2021/05/31 01:36:22;;;;;;;7.00;4.70;;;16.60;66.50;;;;;;10542141;28;20239;-23
2021/05/31 01:41:45;;;;;;;10.60;5.07;;;16.60;66.30;;;;;;10518322;28;20213;-23
2021/05/31 01:47:10;;;;;;;6.40;4.53;;;16.60;66.30;;;;;;10542120;28;20227;-23
2021/05/31 01:52:33;;;;;;;5.67;4.20;;;16.50;66.30;;;;;;10548255;28;20219;-23
2021/05/31 01:57:54;;;;;;;6.37;4.60;;;16.60;66.10;;;;;;10555726;28;20198;-23
2021/05/31 02:03:17;;;;;;;4.87;4.20;;;16.60;66.00;;;;;;10533522;28;20214;-23
2021/05/31 02:08:39;;;;;;;5.47;4.03;;;16.60;65.70;;;;;;10534047;28;20233;-24
2021/05/31 02:14:08;;;;;;;6.80;4.77;;;16.60;65.80;;;;;;10491659;28;20278;-24
2021/05/31 02:19:34;;;;;;;6.90;4.57;;;16.60;65.30;;;;;;10497050;28;20185;-23
2021/05/31 02:24:56;;;;;;;3.87;3.50;;;16.60;65.00;;;;;;10497815;28;20259;-23
2021/05/31 02:30:20;;;;;;;5.97;3.80;;;16.60;64.90;;;;;;10498361;28;20586;-23
2021/05/31 02:35:43;;;;;;;5.47;3.80;;;16.60;64.80;;;;;;10498614;28;20723;-23
2021/05/31 02:41:05;;;;;;;5.50;3.73;;;16.60;64.30;;;;;;10515042;28;20560;-20
2021/05/31 02:46:26;;;;;;;4.60;3.80;;;16.60;64.30;;;;;;10496720;28;20205;-22
2021/05/31 02:51:49;;;;;;;5.03;3.80;;;16.60;64.20;;;;;;10496711;28;20528;-22
2021/05/31 02:57:11;;;;;;;4.50;3.40;;;16.60;63.60;;;;;;10496057;28;20193;-22
2021/05/31 03:02:33;;;;;;;5.77;3.90;;;16.50;63.70;;;;;;10483716;28;20208;-22
2021/05/31 03:07:56;;;;;;;4.23;3.60;;;16.50;63.30;;;;;;10495597;28;20214;-22
2021/05/31 03:13:18;;;;;;;4.33;3.40;;;16.50;62.90;;;;;;10527875;22;20227;-22
2021/05/31 03:18:39;;;;;;;5.50;3.70;;;16.50;62.40;;;;;;10539313;28;20201;-23
2021/05/31 03:24:03;;;;;;;8.80;4.03;;;16.50;62.30;;;;;;10535718;28;20230;-23
2021/05/31 03:29:24;;;;;;;7.03;3.87;;;16.50;61.90;;;;;;10537758;28;20228;-22
2021/05/31 03:34:46;;;;;;;5.33;3.60;;;16.50;61.80;;;;;;10527636;28;20567;-23
2021/05/31 03:40:10;;;;;;;5.30;3.57;;;16.50;61.50;;;;;;10537529;28;20187;-22
2021/05/31 03:45:32;;;;;;;4.43;3.53;;;16.50;62.20;;;;;;10535657;28;20700;-25
2021/05/31 03:51:08;;;;;;;5.23;3.37;;;16.50;61.20;;;;;;10535638;28;20222;-21
2021/05/31 03:56:31;;;;;;;5.30;3.63;;;16.50;61.10;;;;;;10527829;28;20201;-23
2021/05/31 04:01:53;;;;;;;6.67;4.37;;;16.50;60.90;;;;;;10537298;28;20211;-23
2021/05/31 04:13:00;;;;;;;5.00;3.33;;;16.40;60.90;;;;;;10556799;28;20222;-22
2021/05/31 04:18:21;;;;;;;4.37;3.87;;;16.50;61.20;;;;;;10555610;28;20655;-22
2021/05/31 04:23:43;;;;;;;5.80;3.70;;;16.40;61.20;;;;;;10553554;28;20207;-23
2021/05/31 04:29:07;;;;;;;4.70;4.10;;;16.40;61.20;;;;;;10549676;28;20683;-22
2021/05/31 04:34:29;;;;;;;9.00;3.70;;;16.50;61.20;;;;;;10534389;28;20211;-22
2021/05/31 04:39:50;;;;;;;5.30;3.90;;;16.50;61.20;;;;;;10531870;28;20191;-22
2021/05/31 04:45:14;;;;;;;4.40;3.70;;;16.50;61.40;;;;;;10517784;28;20219;-24
2021/05/31 04:50:36;;;;;;;4.27;3.40;;;16.40;61.30;;;;;;10543104;28;20435;-22
2021/05/31 04:56:00;;;;;;;3.63;3.10;;;16.40;61.10;;;;;;10544775;28;20238;-22
2021/05/31 05:01:23;;;;;;;6.53;3.33;;;16.40;61.40;;;;;;10543932;28;20268;-22
2021/05/31 05:06:45;;;;;;;6.07;3.50;;;16.50;61.30;;;;;;10542145;28;20196;-22
2021/05/31 05:12:07;;;;;;;3.40;3.10;;;16.50;61.00;;;;;;10538246;28;20262;-31
2021/05/31 05:17:30;;;;;;;7.37;3.20;;;16.50;60.50;;;;;;10549053;28;20723;-22
2021/05/31 05:22:52;;;;;;;6.10;3.37;;;16.50;60.10;;;;;;10579655;28;20212;-22
2021/05/31 05:28:14;;;;;;;4.57;2.63;;;16.50;60.10;;;;;;10533261;28;20212;-22
2021/05/31 05:33:39;;;;;;;3.47;2.70;;;16.50;60.20;;;;;;10569869;28;20756;-22
2021/05/31 05:39:21;;;;;;;3.93;2.60;;;16.50;59.60;;;;;;10582908;28;20195;-22
2021/05/31 05:50:23;;;;;;;5.83;2.63;;;16.50;58.60;;;;;;10499868;28;20305;-24
2021/05/31 05:55:45;;;;;;;5.80;2.57;;;16.50;58.60;;;;;;10497748;28;20218;-22
2021/05/31 06:01:09;;;;;;;3.17;2.70;;;16.50;58.60;;;;;;10513827;28;20202;-21
2021/05/31 06:06:32;;;;;;;2.23;2.03;;;16.50;59.20;;;;;;10541112;28;20203;-23
2021/05/31 06:11:53;;;;;;;4.43;2.53;;;16.50;59.20;;;;;;10539736;28;20228;-22
2021/05/31 06:17:15;;;;;;;4.63;2.83;;;16.60;59.50;;;;;;10527370;28;20192;-23
2021/05/31 06:22:41;;;;;;;3.60;2.60;;;16.50;59.40;;;;;;10525127;28;20685;-23
2021/05/31 06:28:05;;;;;;;5.03;2.90;;;16.60;60.00;;;;;;10471083;28;20252;-22
2021/05/31 06:33:26;;;;;;;4.93;2.60;;;16.60;59.70;;;;;;10463272;28;20757;-22
2021/05/31 06:38:49;;;;;;;4.47;2.67;;;16.60;57.80;;;;;;10455770;28;20191;-22
2021/05/31 06:44:11;;;;;;;3.33;2.07;;;16.60;57.70;;;;;;10471182;28;20218;-22
2021/05/31 06:49:32;;;;;;;3.73;2.00;;;16.70;57.00;;;;;;10477792;28;20220;-23
2021/05/31 06:54:55;;;;;;;1.90;1.63;;;16.70;57.60;;;;;;10454201;28;20832;-23
2021/05/31 07:00:19;;;;;;;3.50;1.50;;;16.80;57.50;;;;;;10468913;28;20197;-23
2021/05/31 07:05:40;;;;;;;3.57;1.40;;;16.80;57.00;;;;;;10479011;28;20214;-22
2021/05/31 07:11:09;;;;;;;2.93;1.30;;;16.80;52.80;;;;;;10457689;28;20704;-22
2021/05/31 07:16:33;;;;;;;2.53;1.50;;;16.80;52.00;;;;;;10525057;28;20200;-22
2021/05/31 07:21:55;;;;;;;4.93;1.50;;;16.80;52.00;;;;;;10529330;28;20639;-22
2021/05/31 07:27:18;;;;;;;4.40;1.67;;;16.90;52.20;;;;;;10536310;28;20193;-25
2021/05/31 07:32:40;;;;;;;1.97;1.43;;;16.90;51.50;;;;;;10535583;28;20696;-22
2021/05/31 07:38:02;;;;;;;5.93;1.43;;;16.90;50.60;;;;;;10537072;28;20194;-22
2021/05/31 07:43:25;;;;;;;3.83;1.10;;;16.90;49.20;;;;;;10533243;28;20274;-23
2021/05/31 07:48:47;;;;;;;1.03;0.90;;;16.90;50.20;;;;;;10535444;28;20219;-22
2021/05/31 07:54:08;;;;;;;1.50;1.00;;;16.90;49.10;;;;;;10498264;28;20250;-25
2021/05/31 07:59:31;;;;;;;2.60;1.13;;;17.00;48.00;;;;;;10494484;28;20257;-22
2021/05/31 08:04:53;;;;;;;1.53;0.90;;;17.00;48.80;;;;;;10526179;28;20216;-24
2021/05/31 08:10:15;;;;;;;2.03;0.97;;;17.00;48.90;;;;;;10534752;28;20695;-22
2021/05/31 08:15:38;;;;;;;1.87;0.87;;;17.00;48.40;;;;;;10492391;28;20230;-22
2021/05/31 08:21:00;;;;;;;1.43;0.60;;;17.10;44.10;;;;;;10495830;28;20733;-24
2021/05/31 08:26:22;;;;;;;2.07;0.90;;;17.10;45.80;;;;;;10507393;28;20199;-25
2021/05/31 08:31:45;;;;;;;2.10;0.77;;;17.10;45.80;;;;;;10452472;28;20230;-22
2021/05/31 08:37:07;;;;;;;2.50;0.90;;;17.10;46.50;;;;;;10451251;28;20691;-22
2021/05/31 08:42:28;;;;;;;4.57;1.10;;;17.10;45.50;;;;;;10499136;28;20258;-22
2021/05/31 08:47:53;;;;;;;1.23;0.90;;;17.10;46.30;;;;;;10524122;28;20564;-23
2021/05/31 08:53:15;;;;;;;1.00;0.80;;;17.10;46.40;;;;;;10525528;28;20217;-23
2021/05/31 08:58:37;;;;;;;1.67;0.80;;;17.10;46.90;;;;;;10518389;28;20194;-22
2021/05/31 09:04:00;;;;;;;2.10;1.00;;;17.20;46.00;;;;;;10492531;28;20214;-21
2021/05/31 09:09:36;;;;;;;4.40;1.40;;;17.20;46.80;;;;;;10492924;28;20560;-24
2021/05/31 09:15:00;;;;;;;1.97;1.37;;;17.30;46.60;;;;;;10535150;22;20231;-25
2021/05/31 09:20:25;;;;;;;3.40;1.63;;;17.30;48.80;;;;;;10505131;28;20198;-26
2021/05/31 09:25:47;;;;;;;4.33;1.90;;;17.20;49.90;;;;;;10509776;28;20715;-25
2021/05/31 09:31:16;;;;;;;3.03;1.50;;;17.30;51.10;;;;;;10535254;28;20217;-26
2021/05/31 09:36:50;;;;;;;1.87;1.53;;;17.20;51.90;;;;;;10532383;28;20271;-25
2021/05/31 09:42:14;;;;;;;2.37;1.60;;;17.20;52.40;;;;;;10540311;28;20283;-23
2021/05/31 09:47:37;;;;;;;4.03;1.97;;;17.20;53.30;;;;;;10539047;28;20201;-26
2021/05/31 09:53:08;;;;;;;2.83;1.90;;;17.20;53.30;;;;;;10531660;28;20214;-25
2021/05/31 09:58:30;;;;;;;2.93;1.83;;;17.20;54.20;;;;;;10503584;28;20570;-24
2021/05/31 10:03:58;;;;;;;3.43;1.87;;;17.20;54.40;;;;;;10512315;28;20223;-24
2021/05/31 10:09:21;;;;;;;4.37;1.70;;;17.10;54.80;;;;;;10497434;28;20214;-24
2021/05/31 10:14:45;;;;;;;2.70;1.97;;;17.20;53.90;;;;;;10496200;28;20238;-25
2021/05/31 10:20:08;;;;;;;2.73;1.97;;;17.30;53.40;;;;;;10521846;28;20198;-25
2021/05/31 10:25:32;;;;;;;3.87;2.20;;;17.30;53.90;;;;;;10534753;28;20214;-23
2021/05/31 10:31:00;;;;;;;2.70;2.10;;;17.30;54.70;;;;;;10512343;28;20727;-25
2021/05/31 10:36:22;;;;;;;2.93;2.10;;;17.30;55.20;;;;;;10497667;28;20209;-25
2021/05/31 10:41:45;;;;;;;2.83;2.13;;;17.30;56.10;;;;;;10512662;28;20683;-23
2021/05/31 10:47:10;;;;;;;2.83;1.97;;;17.20;56.10;;;;;;10526572;28;20199;-23
2021/05/31 10:52:32;;;;;;;4.03;2.00;;;17.20;56.00;;;;;;10502375;28;20224;-25
2021/05/31 10:57:56;;;;;;;4.30;2.20;;;17.20;56.60;;;;;;10497083;28;20700;-23
2021/05/31 11:03:18;;;;;;;4.87;2.33;;;17.20;54.60;;;;;;10497741;28;20217;-25
2021/05/31 11:08:48;;;;;;;3.57;2.30;;;17.30;55.90;;;;;;10513724;28;20226;-24
2021/05/31 11:14:12;;;;;;;2.77;2.40;;;17.20;56.60;;;;;;10495221;28;20223;-24
2021/05/31 11:19:36;;;;;;;4.43;1.90;;;17.20;56.60;;;;;;10510256;28;20601;-24
2021/05/31 11:24:59;;;;;;;2.20;1.73;;;17.20;56.60;;;;;;10493245;28;20269;-24
2021/05/31 11:30:26;;;;;;;5.13;1.97;;;17.30;56.60;;;;;;10494171;28;20736;-25
2021/05/31 11:35:50;;;;;;;3.57;2.20;;;17.30;57.70;;;;;;10506926;28;20431;-24
2021/05/31 11:41:12;;;;;;;5.20;2.50;;;17.50;57.20;;;;;;10501471;28;20191;-25
2021/05/31 11:46:46;;;;;;;9.07;4.67;;;17.30;57.80;;;;;;10511426;28;20226;-24
2021/05/31 11:52:10;;;;;;;12.97;5.53;;;17.20;58.20;;;;;;10531903;28;20227;-25
2021/05/31 11:57:32;;;;;;;13.27;7.53;;;17.20;58.50;;;;;;10535243;28;20194;-26
2021/05/31 12:02:56;;;;;;;17.03;8.53;;;17.20;58.80;;;;;;10533345;28;20227;-25
2021/05/31 12:08:18;;;;;;;19.47;8.70;;;17.20;58.90;;;;;;10529872;28;20217;-23
2021/05/31 12:13:39;;;;;;;15.37;8.30;;;17.10;59.40;;;;;;10525943;28;20247;-24
2021/05/31 12:19:13;;;;;;;17.33;8.40;;;17.10;59.40;;;;;;10494203;28;20192;-25
2021/05/31 12:24:36;;;;;;;16.70;8.73;;;17.10;59.70;;;;;;10513274;28;20217;-22
2021/05/31 12:29:58;;;;;;;15.43;8.20;;;17.10;59.80;;;;;;10532607;28;20209;-25
2021/05/31 12:35:22;;;;;;;13.23;8.50;;;17.10;60.00;;;;;;10532052;28;20684;-25
2021/05/31 12:40:44;;;;;;;15.63;8.37;;;17.10;60.10;;;;;;10525860;28;20188;-25
2021/05/31 12:46:16;;;;;;;14.70;8.20;;;17.10;60.20;;;;;;10518920;28;20229;-25
2021/05/31 12:51:50;;;;;;;16.27;7.47;;;17.10;60.30;;;;;;10521484;28;20746;-24
2021/05/31 12:57:15;;;;;;;13.40;7.53;;;17.10;60.50;;;;;;10525939;28;20196;-25
2021/05/31 13:02:40;;;;;;;15.10;7.60;;;17.10;60.60;;;;;;10521711;28;20293;-24
2021/05/31 13:08:05;;;;;;;11.70;7.53;;;17.10;60.60;;;;;;10502771;28;20216;-25
2021/05/31 13:13:33;;;;;;;13.27;7.20;;;17.10;60.90;;;;;;10539236;28;20229;-27
2021/05/31 13:18:55;;;;;;;12.43;6.87;;;17.10;60.90;;;;;;10541400;28;20197;-24
2021/05/31 13:24:25;;;;;;;11.93;6.60;;;17.10;61.10;;;;;;10539810;28;20263;-25
2021/05/31 13:30:00;;;;;;;10.50;6.47;;;17.10;61.10;;;;;;10540225;28;20681;-25
2021/05/31 13:35:23;;;;;;;11.23;6.80;;;17.10;61.20;;;;;;10539522;28;20214;-24
2021/05/31 13:40:48;;;;;;;11.33;6.10;;;17.10;61.20;;;;;;10528629;28;20192;-25
2021/05/31 13:46:10;;;;;;;11.97;6.07;;;17.10;61.30;;;;;;10522118;28;20223;-23
2021/05/31 13:51:37;;;;;;;9.30;5.73;;;17.10;61.50;;;;;;10516168;28;20225;-23
2021/05/31 13:57:00;;;;;;;8.40;5.43;;;17.10;61.60;;;;;;10498344;28;20198;-25
2021/05/31 14:02:22;;;;;;;7.60;5.20;;;17.10;61.60;;;;;;10498512;28;20219;-25
2021/05/31 14:07:44;;;;;;;7.70;4.83;;;17.10;61.70;;;;;;10527416;28;20196;-24
2021/05/31 14:13:08;;;;;;;7.23;4.57;;;17.10;61.70;;;;;;10537828;28;20220;-24
2021/05/31 14:18:30;;;;;;;6.03;4.43;;;17.10;61.70;;;;;;10539706;28;20270;-23
2021/05/31 14:23:51;;;;;;;7.33;4.60;;;17.10;61.80;;;;;;10538473;28;20323;-23
2021/05/31 14:29:14;;;;;;;7.03;4.40;;;17.10;61.80;;;;;;10538496;28;20275;-24
2021/05/31 14:34:36;;;;;;;9.07;5.07;;;17.10;61.90;;;;;;10537439;28;20239;-25
2021/05/31 14:39:58;;;;;;;6.57;4.03;;;17.10;62.00;;;;;;10535126;28;20190;-25
2021/05/31 14:45:21;;;;;;;5.60;3.73;;;17.10;62.00;;;;;;10506867;28;20746;-25
2021/05/31 14:50:43;;;;;;;7.97;4.27;;;17.10;62.10;;;;;;10536810;28;20221;-25
2021/05/31 14:56:05;;;;;;;6.60;4.13;;;17.10;62.10;;;;;;10501698;28;20216;-23
2021/05/31 15:01:28;;;;;;;6.03;4.10;;;17.10;62.40;;;;;;10496177;28;20201;-25
2021/05/31 15:06:50;;;;;;;5.27;4.07;;;17.10;62.40;;;;;;10510622;28;20223;-23
2021/05/31 15:12:11;;;;;;;4.93;3.50;;;17.10;62.40;;;;;;10535351;28;20614;-22
2021/05/31 15:17:35;;;;;;;5.17;3.73;;;17.10;62.40;;;;;;10356556;22;20225;-23
2021/05/31 15:22:56;;;;;;;6.63;3.90;;;17.10;62.50;;;;;;10292645;28;20213;-23
2021/05/31 15:28:18;;;;;;;5.30;3.30;;;17.10;62.40;;;;;;10269290;28;20212;-23
2021/05/31 15:33:41;;;;;;;4.67;3.30;;;17.10;62.50;;;;;;10247753;28;20754;-23
2021/05/31 15:39:04;;;;;;;4.60;3.60;;;17.10;62.70;;;;;;10245274;28;20706;-23
2021/05/31 15:44:28;;;;;;;5.60;3.17;;;17.10;62.60;;;;;;10284812;28;20726;-24
2021/05/31 15:49:51;;;;;;;4.80;3.30;;;17.10;62.70;;;;;;10306823;28;20252;-22
2021/05/31 15:55:15;;;;;;;4.50;2.87;;;17.10;62.70;;;;;;10327418;28;20484;-23
2021/05/31 16:00:36;;;;;;;3.47;2.67;;;17.10;62.90;;;;;;10286713;28;20204;-25
2021/05/31 16:06:00;;;;;;;4.50;3.17;;;17.10;62.80;;;;;;10283279;28;20216;-23
2021/05/31 16:11:22;;;;;;;4.07;3.00;;;17.10;62.90;;;;;;10285432;28;20216;-23
2021/05/31 16:16:43;;;;;;;3.80;2.70;;;17.10;62.90;;;;;;10427511;28;20588;-23
2021/05/31 16:22:09;;;;;;;4.80;2.93;;;17.10;63.00;;;;;;10411559;28;20204;-26
2021/05/31 16:27:30;;;;;;;3.03;2.57;;;17.10;63.00;;;;;;10410682;28;20639;-22
2021/05/31 16:32:52;;;;;;;4.27;2.60;;;17.10;63.00;;;;;;10409821;28;20222;-22
2021/05/31 16:38:15;;;;;;;2.53;2.33;;;17.10;63.00;;;;;;10422304;28;20207;-22
2021/05/31 16:43:37;;;;;;;3.40;2.70;;;17.10;63.10;;;;;;10460944;28;20218;-22
2021/05/31 16:48:58;;;;;;;3.07;2.50;;;17.10;63.10;;;;;;10458332;28;20580;-25
2021/05/31 16:54:21;;;;;;;2.90;2.43;;;17.10;63.30;;;;;;10441422;28;20222;-22
2021/05/31 16:59:43;;;;;;;3.80;2.78;;;17.10;63.10;;;;;;10465622;28;20439;-22
2021/05/31 17:05:07;;;;;;;2.27;2.07;;;17.40;62.30;;;;;;10415730;28;20216;-24
2021/05/31 17:10:35;;;;;;;3.67;2.67;;;17.30;63.10;;;;;;10436174;28;20216;-22
2021/05/31 17:18:50;;;;;;;2.63;2.30;;;17.20;63.00;;;;;;10481867;28;20232;-22
2021/05/31 17:21:54;;;;;;;2.80;2.40;;;17.10;63.10;;;;;;10500664;28;20198;-27
2021/05/31 17:27:18;;;;;;;3.70;2.63;;;17.10;63.00;;;;;;10464335;28;20229;-24
2021/05/31 17:32:39;;;;;;;3.30;2.70;;;17.10;62.80;;;;;;10495600;28;20266;-22
2021/05/31 17:38:01;;;;;;;2.67;2.13;;;17.20;63.20;;;;;;10495390;28;20674;-25
2021/05/31 17:43:24;;;;;;;3.10;2.57;;;17.20;62.80;;;;;;10495394;28;20220;-22
2021/05/31 17:48:45;;;;;;;3.73;2.17;;;17.20;62.80;;;;;;10501348;28;20203;-23
2021/05/31 17:54:07;;;;;;;2.70;2.17;;;17.20;63.00;;;;;;10426637;28;20217;-22
2021/05/31 17:59:30;;;;;;;2.87;2.20;;;17.20;63.20;;;;;;10495846;28;20217;-23
2021/05/31 18:04:52;;;;;;;4.90;2.73;;;17.20;63.50;;;;;;10498574;28;20599;-23
2021/05/31 18:10:17;;;;;;;2.70;2.17;;;17.20;63.50;;;;;;10494760;28;20704;-23
2021/05/31 18:15:41;;;;;;;3.70;2.33;;;17.20;63.40;;;;;;10496450;28;20238;-24
2021/05/31 18:21:05;;;;;;;3.00;2.20;;;17.10;63.30;;;;;;10521377;28;20197;-22
2021/05/31 18:26:26;;;;;;;2.47;2.27;;;17.10;63.40;;;;;;10519836;28;20221;-25
2021/05/31 18:31:49;;;;;;;4.67;2.63;;;17.10;63.70;;;;;;10249089;28;20221;-24
2021/05/31 18:37:14;;;;;;;2.40;2.20;;;17.10;63.70;;;;;;10245927;28;20233;-23
2021/05/31 18:42:36;;;;;;;4.37;2.23;;;17.20;63.80;;;;;;10442462;28;20599;-25
2021/05/31 18:47:59;;;;;;;2.50;2.23;;;17.20;63.70;;;;;;10493681;28;20234;-23
2021/05/31 18:53:22;;;;;;;3.00;2.13;;;17.20;64.40;;;;;;10531936;28;20748;-25
2021/05/31 18:58:44;;;;;;;2.40;2.20;;;17.10;63.80;;;;;;10532704;28;20908;-24
2021/05/31 19:04:07;;;;;;;2.40;2.20;;;17.10;63.90;;;;;;10320078;28;20604;-22
2021/05/31 19:09:29;;;;;;;4.13;2.37;;;17.20;63.90;;;;;;10322268;28;20227;-24
2021/05/31 19:14:50;;;;;;;2.40;2.20;;;17.10;63.90;;;;;;10322634;28;20257;-25
2021/05/31 19:20:14;;;;;;;2.70;2.30;;;17.10;64.00;;;;;;10528091;28;20224;-25
2021/05/31 19:25:35;;;;;;;4.13;2.37;;;17.10;64.00;;;;;;10483444;28;20595;-23
2021/05/31 19:30:57;;;;;;;2.97;2.13;;;17.10;64.00;;;;;;10450717;28;20214;-23
2021/05/31 19:36:20;;;;;;;2.93;2.13;;;17.10;64.10;;;;;;10447931;28;20218;-23
2021/05/31 19:41:42;;;;;;;3.40;2.30;;;17.10;64.20;;;;;;10462131;28;20672;-23
2021/05/31 19:47:05;;;;;;;2.43;2.00;;;17.10;64.20;;;;;;10482594;28;20230;-23
2021/05/31 19:52:28;;;;;;;2.23;2.10;;;17.10;64.20;;;;;;10453283;28;20231;-23
2021/05/31 20:03:29;;;;;;;2.50;2.30;;;17.10;64.30;;;;;;10511273;28;20245;-23
2021/05/31 20:08:52;;;;;;;3.60;2.13;;;17.10;64.40;;;;;;10302740;28;20205;-22
2021/05/31 20:14:14;;;;;;;2.70;2.30;;;17.10;64.40;;;;;;10498054;28;20225;-21
2021/05/31 20:19:36;;;;;;;2.53;2.07;;;17.10;64.50;;;;;;10493602;28;20194;-22
2021/05/31 20:24:58;;;;;;;2.47;2.23;;;17.10;64.50;;;;;;10493937;28;20219;-23
2021/05/31 20:30:22;;;;;;;2.60;2.27;;;17.10;64.60;;;;;;10461781;28;20279;-22
2021/05/31 20:35:44;;;;;;;2.40;2.20;;;17.10;64.70;;;;;;10491906;28;20763;-22
2021/05/31 20:41:07;;;;;;;1.97;1.77;;;17.10;64.60;;;;;;10490144;28;20588;-23
2021/05/31 20:46:28;;;;;;;3.50;2.30;;;17.10;64.60;;;;;;10494179;28;20214;-23
2021/05/31 20:51:50;;;;;;;2.30;2.10;;;17.10;64.60;;;;;;10533986;28;20289;-25
2021/05/31 20:57:13;;;;;;;2.40;2.20;;;17.10;64.60;;;;;;10534022;28;20217;-23
2021/05/31 21:02:35;;;;;;;2.43;2.10;;;17.10;64.60;;;;;;10532490;28;20537;-25
2021/05/31 21:07:59;;;;;;;2.47;2.27;;;17.10;64.60;;;;;;10533674;28;20221;-23
2021/05/31 21:13:25;;;;;;;2.33;2.03;;;17.10;64.60;;;;;;10533953;28;20221;-23
2021/05/31 21:18:50;;;;;;;2.27;2.07;;;17.10;64.50;;;;;;10521277;22;20250;-23
2021/05/31 21:24:12;;;;;;;2.23;1.90;;;17.10;64.60;;;;;;10509784;28;20194;-23
2021/05/31 21:29:35;;;;;;;2.40;2.20;;;17.10;64.60;;;;;;10488222;28;20210;-23
2021/05/31 21:34:56;;;;;;;2.70;2.50;;;17.10;64.80;;;;;;10542152;28;20585;-23
2021/05/31 21:40:18;;;;;;;3.37;2.10;;;17.10;64.80;;;;;;10540922;28;20231;-24
2021/05/31 21:45:44;;;;;;;3.83;2.47;;;17.10;65.10;;;;;;10453676;28;20217;-24
2021/05/31 21:51:05;;;;;;;2.80;2.50;;;17.10;65.00;;;;;;10568318;28;20714;-23
2021/05/31 21:56:27;;;;;;;2.67;2.37;;;17.10;64.90;;;;;;10582721;28;20216;-23
2021/05/31 22:01:50;;;;;;;3.03;2.57;;;17.10;64.90;;;;;;10567968;28;20610;-23
2021/05/31 22:07:12;;;;;;;3.20;2.60;;;17.10;64.80;;;;;;10539628;28;20217;-23
2021/05/31 22:12:34;;;;;;;3.87;2.50;;;17.10;65.10;;;;;;10534762;28;20229;-23
2021/05/31 22:17:57;;;;;;;4.87;3.13;;;17.10;65.10;;;;;;10497864;28;20270;-24
2021/05/31 22:23:25;;;;;;;3.10;2.80;;;17.10;65.20;;;;;;10520294;28;20676;-24
2021/05/31 22:34:28;;;;;;;3.00;2.70;;;17.10;65.30;;;;;;10536192;28;20186;-24
2021/05/31 22:39:50;;;;;;;4.23;3.07;;;17.10;65.30;;;;;;10498269;28;20613;-23
2021/05/31 22:56:53;;;;;;;3.70;2.73;;;17.10;65.60;;;;;;10579961;28;20308;-23
2021/05/31 23:02:23;;;;;;;3.47;3.17;;;17.10;65.60;;;;;;10571193;28;20664;-23
2021/05/31 23:08:07;;;;;;;3.87;3.20;;;17.00;65.50;;;;;;10527982;28;20274;-24
2021/05/31 23:13:29;;;;;;;5.17;3.23;;;17.10;65.70;;;;;;10537466;28;20809;-23
2021/05/31 23:18:50;;;;;;;5.77;3.63;;;17.00;65.60;;;;;;10537366;28;20245;-23
2021/05/31 23:24:14;;;;;;;4.33;3.17;;;17.00;65.50;;;;;;10492225;28;20205;-24
2021/05/31 23:29:35;;;;;;;4.63;3.67;;;17.00;65.60;;;;;;10510983;28;20585;-23
2021/05/31 23:34:57;;;;;;;3.23;2.93;;;17.00;65.70;;;;;;10535760;28;20234;-22
2021/05/31 23:40:22;;;;;;;4.63;3.20;;;17.10;65.90;;;;;;10499645;28;20194;-23
2021/05/31 23:45:44;;;;;;;3.40;3.10;;;17.00;65.70;;;;;;10536332;28;20697;-25
2021/05/31 23:51:27;;;;;;;3.40;3.10;;;17.10;65.80;;;;;;10533133;28;20589;-23
2021/05/31 23:56:50;;;;;;;5.10;3.20;;;17.00;65.70;;;;;;10532305;28;20236;-24
